Terminal Aerodrome Forecast
Issued by NWS

Home | Current Version | Previous Version | Text Only | Print | Product List | Glossary On
Versions: 1 2 3 4 5 6 7 8 9 10 11 12 13 14 15
000
FTAK31 PAJN 041154
TAFAJN
TAF
PAJN 041154Z 0412/0512 08004KT P6SM SCT100 BKN200
     FM041500 09004KT P6SM OVC090
     FM041800 10011KT P6SM VCSH SCT050 OVC080
     FM042100 11011KT P6SM -RA OVC050
     FM050300 09009KT P6SM -RA BKN025 OVC040
     FM051000 10010G17KT 6SM -RA BKN025 OVC040=

USA.gov is the U.S. government's official web portal to all federal, state and local government web resources and services.